Flag for Brazil

Past Weather in 9°40'57.6"S, 35°43'32.7"W, Brazil — Yesterday and Last 2 Weeks

Currently: 88 °F. Passing clouds. (Weather station: Maceio Aeroporto, Brazil). See more current weather

Past Weather in 9°40'57.6"S, 35°43'32.7"W — Graph

°F

9°40'57.6"S, 35°43'32.7"W Temperature Yesterday

Maximum temperature yesterday: 90 °F (at 10:00 am)
Minimum temperature yesterday: 77 °F (at 3:00 am)
Average temperature yesterday: 83 °F

High & Low Weather Summary for the Past Weeks

 TemperatureHumidityPressure
High93 °F (Nov 24, 11:00 am)100% (Nov 16, 11:00 pm)29.98 "Hg (Nov 16, 11:00 pm)
Low72 °F (Nov 18, 3:00 am)46% (Nov 17, 10:00 am)29.77 "Hg (Nov 27, 4:00 pm)
Average82 °F74%29.89 "Hg
* Reported Nov 15 2:00 pm — Nov 30 2:00 pm, 9°40'57.6"S, 35°43'32.7"W. Weather by CustomWeather, © 2021

Note: Actual official high and low records may vary slightly from our data, if they occured in-between our weather recording intervals... More about our weather records

9°40'57.6"S, 35°43'32.7"W Weather History for the Previous 24 Hours

Scroll right to see more
 ConditionsComfort  
Time TempWeatherWind HumidityBarometerVisibility
2:00 pm
Tue, Nov 30
91 °FScattered clouds.17 mph56%29.80 "HgN/A
1:00 pm91 °FScattered clouds.15 mph56%29.83 "HgN/A
12:00 pm93 °FScattered clouds.13 mph49%29.86 "HgN/A
11:00 am91 °FScattered clouds.13 mph52%29.89 "HgN/A
10:00 am90 °FScattered clouds.10 mph55%29.89 "HgN/A
9:00 am88 °FScattered clouds.14 mph55%29.92 "HgN/A
8:00 am84 °FBroken clouds.13 mph70%29.89 "HgN/A
7:00 am82 °FPartly sunny.8 mph79%29.89 "HgN/A
6:00 am79 °FPartly sunny.3 mph89%29.89 "HgN/A
5:00 am77 °FPartly sunny.5 mph89%29.86 "HgN/A
4:00 am77 °FPassing clouds.5 mph89%29.83 "HgN/A
3:00 am77 °FPassing clouds.5 mph89%29.86 "HgN/A
2:00 am79 °FPassing clouds.6 mph84%29.83 "HgN/A
1:00 am79 °FPassing clouds.6 mph84%29.83 "HgN/A
12:00 am79 °FPassing clouds.6 mph84%29.86 "HgN/A
11:00 pm
Mon, Nov 29
79 °FPassing clouds.6 mph84%29.89 "HgN/A
10:00 pm79 °FPassing clouds.8 mph84%29.89 "HgN/A
9:00 pm81 °FClear.8 mph79%29.89 "Hg10 mi
8:00 pm81 °FClear.8 mph79%29.86 "Hg10 mi
7:00 pm81 °FClear.14 mph79%29.83 "Hg10 mi
6:00 pm82 °FClear.14 mph74%29.80 "Hg10 mi
5:00 pm82 °FPassing clouds.16 mph74%29.80 "HgN/A
4:00 pm86 °FPassing clouds.17 mph66%29.80 "HgN/A
3:00 pm86 °FPartly sunny.17 mph66%29.80 "HgN/A
Weather by CustomWeather, © 2021

See weather overview